Time;durP1;ratioP1;P1;durP2;ratioP2;P2;SDS_P1;SDS_P2;PMS_P1;PMS_P2;Temp;Humidity;BMP_temperature;BMP_pressure;BME280_temperature;BME280_humidity;BME280_pressure;Samples;Min_cycle;Max_cycle;Signal;HPM_P1;HPM_P2
2021/06/04 00:01:25;;;;;;;3.70;3.40;;;;;;;;;;5063834;28;20257;-82
2021/06/04 00:03:52;;;;;;;4.00;3.67;;;;;;;;;;5067443;28;20188;-82
2021/06/04 00:06:19;;;;;;;3.87;3.57;;;;;;;;;;5069771;28;20181;-83
2021/06/04 00:08:49;;;;;;;4.50;4.10;;;;;;;;;;5066083;28;20489;-82
2021/06/04 00:11:18;;;;;;;4.67;4.30;;;;;;;;;;5065993;28;20680;-82
2021/06/04 00:13:45;;;;;;;4.83;4.43;;;;;;;;;;5066590;28;20173;-83
2021/06/04 00:16:27;;;;;;;4.30;3.60;;;;;;;;;;5051237;28;20705;-83
2021/06/04 00:18:53;;;;;;;4.03;3.73;;;;;;;;;;5063384;28;20177;-83
2021/06/04 00:21:24;;;;;;;4.60;4.20;;;;;;;;;;5067861;28;20698;-83
2021/06/04 00:23:51;;;;;;;3.67;3.40;;;;;;;;;;5067005;28;20175;-83
2021/06/04 00:26:17;;;;;;;3.80;3.57;;;;;;;;;;5053701;28;20178;-83
2021/06/04 00:28:44;;;;;;;4.30;3.70;;;;;;;;;;5069670;28;20264;-83
2021/06/04 00:31:10;;;;;;;5.00;4.37;;;;;;;;;;5069593;28;20287;-83
2021/06/04 00:33:36;;;;;;;4.10;3.77;;;;;;;;;;5064067;28;20185;-84
2021/06/04 00:36:03;;;;;;;4.40;4.00;;;;;;;;;;5055930;28;20178;-83
2021/06/04 00:38:29;;;;;;;4.17;3.70;;;;;;;;;;5069840;28;20561;-84
2021/06/04 00:40:57;;;;;;;4.67;3.90;;;;;;;;;;5072131;28;20624;-84
2021/06/04 00:43:25;;;;;;;4.50;4.10;;;;;;;;;;5065395;28;20195;-84
2021/06/04 00:45:52;;;;;;;4.67;4.27;;;;;;;;;;5065842;28;20615;-84
2021/06/04 00:48:19;;;;;;;4.90;4.10;;;;;;;;;;5058834;28;20626;-84
2021/06/04 00:50:48;;;;;;;3.73;3.43;;;;;;;;;;5070437;28;20224;-84
2021/06/04 00:53:15;;;;;;;4.33;3.93;;;;;;;;;;5070001;28;20196;-85
2021/06/04 00:55:41;;;;;;;3.93;3.60;;;;;;;;;;5068364;28;20173;-84
2021/06/04 00:58:08;;;;;;;4.90;3.83;;;;;;;;;;5063196;28;20179;-84
2021/06/04 01:00:40;;;;;;;4.60;4.20;;;;;;;;;;5068005;28;20208;-84
2021/06/04 01:03:07;;;;;;;4.37;4.07;;;;;;;;;;5070149;28;20240;-84
2021/06/04 01:05:34;;;;;;;4.20;3.90;;;;;;;;;;5068236;28;20183;-84
2021/06/04 01:08:06;;;;;;;4.13;3.83;;;;;;;;;;5062959;28;20182;-84
2021/06/04 01:10:51;;;;;;;3.97;3.57;;;;;;;;;;5068662;28;20182;-83
2021/06/04 01:13:23;;;;;;;4.33;3.63;;;;;;;;;;5057444;28;20197;-83
2021/06/04 01:16:07;;;;;;;4.17;3.80;;;;;;;;;;5067863;28;20506;-83
2021/06/04 01:18:53;;;;;;;4.43;4.03;;;;;;;;;;5066682;28;20181;-83
2021/06/04 01:21:25;;;;;;;4.30;3.90;;;;;;;;;;5060436;28;20744;-83
2021/06/04 01:24:09;;;;;;;4.43;4.03;;;;;;;;;;5063059;28;20385;-83
2021/06/04 01:26:52;;;;;;;4.00;3.70;;;;;;;;;;5060040;28;20706;-83
2021/06/04 01:29:26;;;;;;;4.30;3.77;;;;;;;;;;5064425;28;20192;-83
2021/06/04 01:31:56;;;;;;;4.27;3.87;;;;;;;;;;5070899;28;20674;-83
2021/06/04 01:34:23;;;;;;;4.60;3.93;;;;;;;;;;5069298;28;20180;-83
2021/06/04 01:36:51;;;;;;;4.23;3.87;;;;;;;;;;5068510;28;20192;-83
2021/06/04 01:39:25;;;;;;;4.33;3.93;;;;;;;;;;5068950;28;20204;-83
2021/06/04 01:41:51;;;;;;;3.87;3.50;;;;;;;;;;5063304;28;20246;-82
2021/06/04 01:44:25;;;;;;;4.67;4.27;;;;;;;;;;5064718;28;20550;-83
2021/06/04 01:46:54;;;;;;;4.33;3.93;;;;;;;;;;5068508;28;20189;-83
2021/06/04 01:49:24;;;;;;;4.20;3.80;;;;;;;;;;5064880;28;20215;-82
2021/06/04 01:51:55;;;;;;;4.63;4.20;;;;;;;;;;5064539;28;20666;-83
2021/06/04 01:54:24;;;;;;;4.30;3.90;;;;;;;;;;5084938;28;20272;-82
2021/06/04 01:56:54;;;;;;;4.23;3.87;;;;;;;;;;5050547;28;20277;-82
2021/06/04 01:59:29;;;;;;;7.00;4.10;;;;;;;;;;5064697;28;20229;-82
2021/06/04 02:01:55;;;;;;;5.00;3.93;;;;;;;;;;5063037;28;20322;-83
2021/06/04 02:04:24;;;;;;;4.33;3.93;;;;;;;;;;5059473;28;20271;-82
2021/06/04 02:06:50;;;;;;;4.53;4.13;;;;;;;;;;5068000;28;20271;-83
2021/06/04 02:09:18;;;;;;;4.20;3.90;;;;;;;;;;5067666;28;20655;-82
2021/06/04 02:11:44;;;;;;;3.90;3.60;;;;;;;;;;5067651;28;20200;-82
2021/06/04 02:14:12;;;;;;;4.37;3.97;;;;;;;;;;5061868;28;20176;-82
2021/06/04 02:16:46;;;;;;;4.47;4.03;;;;;;;;;;5068819;28;20245;-82
2021/06/04 02:19:29;;;;;;;4.43;4.03;;;;;;;;;;5063696;28;20524;-82
2021/06/04 02:21:56;;;;;;;4.50;4.10;;;;;;;;;;5061862;28;20503;-82
2021/06/04 02:24:42;;;;;;;4.50;4.20;;;;;;;;;;5064917;28;20490;-82
2021/06/04 02:27:10;;;;;;;5.07;4.63;;;;;;;;;;5056275;28;20184;-82
2021/06/04 02:29:41;;;;;;;4.00;3.70;;;;;;;;;;5064501;28;20559;-83
2021/06/04 02:32:22;;;;;;;3.87;3.57;;;;;;;;;;5060760;28;20205;-83
2021/06/04 02:34:51;;;;;;;4.60;4.20;;;;;;;;;;5066069;28;20180;-83
2021/06/04 02:37:43;;;;;;;4.43;4.03;;;;;;;;;;5066713;28;20535;-83
2021/06/04 02:40:15;;;;;;;4.87;4.37;;;;;;;;;;5060093;28;20201;-83
2021/06/04 02:42:47;;;;;;;4.40;4.00;;;;;;;;;;5065121;28;20536;-83
2021/06/04 02:45:28;;;;;;;4.47;3.70;;;;;;;;;;5059599;28;20188;-83
2021/06/04 02:47:56;;;;;;;4.70;4.30;;;;;;;;;;5063049;28;20189;-83
2021/06/04 02:50:34;;;;;;;4.23;3.93;;;;;;;;;;5063361;28;20683;-83
2021/06/04 02:53:32;;;;;;;4.47;4.07;;;;;;;;;;5067350;28;20247;-84
2021/06/04 02:56:17;;;;;;;4.20;3.90;;;;;;;;;;5018607;28;20193;-83
2021/06/04 02:58:45;;;;;;;4.10;3.80;;;;;;;;;;5063981;28;20630;-84
2021/06/04 03:01:12;;;;;;;4.20;3.90;;;;;;;;;;5062335;28;20196;-84
2021/06/04 03:03:41;;;;;;;4.30;4.00;;;;;;;;;;5060990;28;20415;-84
2021/06/04 03:06:07;;;;;;;4.60;4.20;;;;;;;;;;5068409;28;20421;-84
2021/06/04 03:08:35;;;;;;;4.47;4.07;;;;;;;;;;5055688;28;20187;-84
2021/06/04 03:11:02;;;;;;;4.60;4.20;;;;;;;;;;5070339;28;20178;-84
2021/06/04 03:13:30;;;;;;;4.00;3.70;;;;;;;;;;5087924;28;20223;-84
2021/06/04 03:15:58;;;;;;;4.43;4.03;;;;;;;;;;5087616;28;20290;-84
2021/06/04 03:18:29;;;;;;;4.60;4.20;;;;;;;;;;5068582;28;20181;-84
2021/06/04 03:20:56;;;;;;;4.37;4.07;;;;;;;;;;5059209;28;20221;-83
2021/06/04 03:23:23;;;;;;;4.70;4.30;;;;;;;;;;5052194;28;20184;-83
2021/06/04 03:25:51;;;;;;;5.07;4.67;;;;;;;;;;5068591;28;20244;-83
2021/06/04 03:28:19;;;;;;;4.67;4.30;;;;;;;;;;5056445;28;20172;-83
2021/06/04 03:30:46;;;;;;;4.10;3.80;;;;;;;;;;5075629;28;20686;-83
2021/06/04 03:33:13;;;;;;;4.20;3.90;;;;;;;;;;5065162;28;20237;-83
2021/06/04 03:35:40;;;;;;;4.10;3.77;;;;;;;;;;5056591;28;20191;-83
2021/06/04 03:38:07;;;;;;;4.90;4.40;;;;;;;;;;5061892;28;20200;-83
2021/06/04 03:40:34;;;;;;;4.57;4.17;;;;;;;;;;5069354;28;20199;-83
2021/06/04 03:43:01;;;;;;;5.17;4.67;;;;;;;;;;5066170;28;20267;-83
2021/06/04 03:45:31;;;;;;;4.20;3.80;;;;;;;;;;5070028;28;20180;-83
2021/06/04 03:47:57;;;;;;;4.73;4.33;;;;;;;;;;5067981;28;20647;-83
2021/06/04 03:50:23;;;;;;;4.17;3.77;;;;;;;;;;5064661;28;20219;-82
2021/06/04 03:52:50;;;;;;;4.37;4.07;;;;;;;;;;5064234;28;20284;-82
2021/06/04 03:55:18;;;;;;;4.50;4.10;;;;;;;;;;5070747;28;20187;-82
2021/06/04 03:57:48;;;;;;;4.23;3.93;;;;;;;;;;5057731;28;20181;-82
2021/06/04 04:00:17;;;;;;;4.07;3.77;;;;;;;;;;5060437;28;20287;-82
2021/06/04 04:02:43;;;;;;;4.67;4.27;;;;;;;;;;5058917;28;20299;-82
2021/06/04 04:05:10;;;;;;;4.60;4.20;;;;;;;;;;5069590;28;20707;-82
2021/06/04 04:07:38;;;;;;;4.50;4.20;;;;;;;;;;5062063;28;20274;-82
2021/06/04 04:10:04;;;;;;;4.73;4.40;;;;;;;;;;5069740;28;20239;-82
2021/06/04 04:12:31;;;;;;;4.70;4.30;;;;;;;;;;5074183;28;20235;-82
2021/06/04 04:14:57;;;;;;;4.50;4.10;;;;;;;;;;5073805;28;20198;-81
2021/06/04 04:17:23;;;;;;;4.30;4.00;;;;;;;;;;5067800;28;20186;-82
2021/06/04 04:19:49;;;;;;;7.00;5.00;;;;;;;;;;5090560;28;20174;-82
2021/06/04 04:22:15;;;;;;;5.23;4.83;;;;;;;;;;5074175;28;20190;-82
2021/06/04 04:24:41;;;;;;;4.40;4.00;;;;;;;;;;5073922;28;20252;-82
2021/06/04 04:27:09;;;;;;;4.80;4.40;;;;;;;;;;5091666;28;20177;-82
2021/06/04 04:29:35;;;;;;;5.80;4.67;;;;;;;;;;5073509;28;20183;-82
2021/06/04 04:32:02;;;;;;;4.97;4.57;;;;;;;;;;5087176;28;20240;-82
2021/06/04 04:34:29;;;;;;;4.70;4.30;;;;;;;;;;5073233;28;20176;-82
2021/06/04 04:36:57;;;;;;;4.67;4.27;;;;;;;;;;5070197;28;20194;-82
2021/06/04 04:39:25;;;;;;;5.23;4.80;;;;;;;;;;5073094;28;20174;-82
2021/06/04 04:41:52;;;;;;;5.67;5.17;;;;;;;;;;5073539;28;20577;-82
2021/06/04 04:44:23;;;;;;;5.47;4.97;;;;;;;;;;5088416;28;20311;-82
2021/06/04 04:46:49;;;;;;;5.20;4.80;;;;;;;;;;5070696;28;20181;-82
2021/06/04 04:49:16;;;;;;;5.60;5.10;;;;;;;;;;5067178;28;20175;-82
2021/06/04 04:51:42;;;;;;;5.17;4.70;;;;;;;;;;5077284;28;20230;-82
2021/06/04 04:54:09;;;;;;;5.63;4.97;;;;;;;;;;5065458;28;20236;-83
2021/06/04 04:56:36;;;;;;;4.77;4.37;;;;;;;;;;5055068;28;20188;-83
2021/06/04 04:59:02;;;;;;;4.83;4.43;;;;;;;;;;5071440;28;20278;-83
2021/06/04 05:01:30;;;;;;;4.93;4.50;;;;;;;;;;5072615;28;20196;-83
2021/06/04 05:03:56;;;;;;;5.57;5.17;;;;;;;;;;5073259;28;20191;-83
2021/06/04 05:06:25;;;;;;;5.10;4.60;;;;;;;;;;5071953;28;21776;-83
2021/06/04 05:08:51;;;;;;;5.80;5.30;;;;;;;;;;5072329;28;20188;-83
2021/06/04 05:11:18;;;;;;;5.87;5.37;;;;;;;;;;5072124;28;20261;-83
2021/06/04 05:13:44;;;;;;;5.13;4.37;;;;;;;;;;5069694;28;20188;-83
2021/06/04 05:16:10;;;;;;;4.70;4.37;;;;;;;;;;5071405;28;20591;-83
2021/06/04 05:18:37;;;;;;;5.27;4.87;;;;;;;;;;5072507;28;20176;-83
2021/06/04 05:21:05;;;;;;;5.80;5.30;;;;;;;;;;5068175;28;21004;-78
2021/06/04 05:23:31;;;;;;;5.10;4.70;;;;;;;;;;5089735;28;20185;-79
2021/06/04 05:25:57;;;;;;;5.50;5.10;;;;;;;;;;5066066;28;20184;-79
2021/06/04 05:28:25;;;;;;;5.33;4.93;;;;;;;;;;5069227;28;20197;-79
2021/06/04 05:30:54;;;;;;;6.03;5.53;;;;;;;;;;5069082;28;20494;-79
2021/06/04 05:33:23;;;;;;;5.50;5.10;;;;;;;;;;5067854;28;20221;-79
2021/06/04 05:35:49;;;;;;;5.60;5.10;;;;;;;;;;5084452;28;20176;-79
2021/06/04 05:38:16;;;;;;;6.33;5.73;;;;;;;;;;5086846;28;20176;-78
2021/06/04 05:40:44;;;;;;;5.83;5.33;;;;;;;;;;5067788;28;20275;-79
2021/06/04 05:43:12;;;;;;;5.60;5.10;;;;;;;;;;5086602;28;20172;-79
2021/06/04 05:45:40;;;;;;;6.93;6.33;;;;;;;;;;5087624;28;20267;-78
2021/06/04 05:48:06;;;;;;;6.93;6.23;;;;;;;;;;5066852;28;20211;-83
2021/06/04 05:50:36;;;;;;;6.20;5.70;;;;;;;;;;5067081;28;20537;-82
2021/06/04 05:53:03;;;;;;;6.73;6.10;;;;;;;;;;5068321;28;20601;-83
2021/06/04 05:55:31;;;;;;;6.53;6.03;;;;;;;;;;5078092;28;21012;-82
2021/06/04 05:57:57;;;;;;;6.10;5.67;;;;;;;;;;5079137;28;20531;-83
2021/06/04 06:00:32;;;;;;;6.67;6.10;;;;;;;;;;5062011;28;20195;-83
2021/06/04 06:02:59;;;;;;;8.30;6.57;;;;;;;;;;5071557;28;20179;-82
2021/06/04 06:05:25;;;;;;;6.67;6.00;;;;;;;;;;5071915;28;20716;-82
2021/06/04 06:07:51;;;;;;;7.37;6.63;;;;;;;;;;5088172;28;20176;-82
2021/06/04 06:10:18;;;;;;;6.73;6.03;;;;;;;;;;5061238;28;20749;-82
2021/06/04 06:12:44;;;;;;;7.10;6.50;;;;;;;;;;5071777;28;20556;-82
2021/06/04 06:15:10;;;;;;;7.17;6.57;;;;;;;;;;5071506;28;20183;-82
2021/06/04 06:17:37;;;;;;;8.47;7.33;;;;;;;;;;5071980;28;20191;-82
2021/06/04 06:20:05;;;;;;;7.70;6.83;;;;;;;;;;5087992;28;20236;-82
2021/06/04 06:22:31;;;;;;;8.90;8.10;;;;;;;;;;5071274;28;20264;-82
2021/06/04 06:24:57;;;;;;;9.17;8.27;;;;;;;;;;5088657;28;20608;-82
2021/06/04 06:27:23;;;;;;;8.57;7.73;;;;;;;;;;5088222;28;20970;-79
2021/06/04 06:29:50;;;;;;;9.07;8.27;;;;;;;;;;5067736;28;20194;-79
2021/06/04 06:32:20;;;;;;;8.33;7.63;;;;;;;;;;5069355;28;20212;-79
2021/06/04 06:34:47;;;;;;;9.40;8.50;;;;;;;;;;5088960;28;20173;-79
2021/06/04 06:37:13;;;;;;;10.03;9.13;;;;;;;;;;5066310;28;20164;-79
2021/06/04 06:39:42;;;;;;;7.93;7.17;;;;;;;;;;5065119;28;20190;-87
2021/06/04 06:42:08;;;;;;;8.60;7.80;;;;;;;;;;5066126;28;20375;-82
2021/06/04 06:44:35;;;;;;;7.77;7.17;;;;;;;;;;5061181;28;20414;-79
2021/06/04 06:47:01;;;;;;;8.53;7.83;;;;;;;;;;5085767;28;20245;-78
2021/06/04 06:49:28;;;;;;;7.20;6.57;;;;;;;;;;5085974;28;20182;-84
2021/06/04 06:51:55;;;;;;;8.20;7.50;;;;;;;;;;5069966;28;20758;-84
2021/06/04 06:54:22;;;;;;;9.53;8.67;;;;;;;;;;5069499;28;20867;-83
2021/06/04 06:56:51;;;;;;;11.83;10.83;;;;;;;;;;5088203;28;20184;-83
2021/06/04 06:59:17;;;;;;;14.33;12.93;;;;;;;;;;5062347;28;20251;-79
2021/06/04 07:01:43;;;;;;;11.93;10.82;;;;;;;;;;5083553;28;20816;-81
2021/06/04 07:04:09;;;;;;;14.00;12.67;;;;;;;;;;5061706;28;20203;-82
2021/06/04 07:06:37;;;;;;;12.43;11.23;;;;;;;;;;5082549;28;20184;-81
2021/06/04 07:09:04;;;;;;;12.77;11.47;;;;;;;;;;5069723;28;20210;-81
2021/06/04 07:11:34;;;;;;;14.13;12.83;;;;;;;;;;5059576;28;20218;-81
2021/06/04 07:14:01;;;;;;;12.57;11.27;;;;;;;;;;5056646;28;20175;-82
2021/06/04 07:16:27;;;;;;;16.80;15.10;;;;;;;;;;5053945;28;20183;-83
2021/06/04 07:18:53;;;;;;;17.53;15.70;;;;;;;;;;5066939;28;20172;-83
2021/06/04 07:21:21;;;;;;;16.43;14.07;;;;;;;;;;5067744;28;20184;-83
2021/06/04 07:23:47;;;;;;;15.33;13.67;;;;;;;;;;5086407;28;20191;-83
2021/06/04 07:26:13;;;;;;;14.07;12.63;;;;;;;;;;5085361;28;20285;-83
2021/06/04 07:28:40;;;;;;;14.03;12.63;;;;;;;;;;5067806;28;20245;-84
2021/06/04 07:31:08;;;;;;;14.23;12.57;;;;;;;;;;5070379;28;20184;-83
2021/06/04 07:33:36;;;;;;;13.53;12.30;;;;;;;;;;5059825;28;20192;-84
2021/06/04 07:36:05;;;;;;;14.10;12.60;;;;;;;;;;5057870;28;20705;-84
2021/06/04 07:38:31;;;;;;;17.40;15.60;;;;;;;;;;5068718;28;20416;-83
2021/06/04 07:40:57;;;;;;;17.50;15.13;;;;;;;;;;5091753;28;20641;-83
2021/06/04 07:43:26;;;;;;;15.33;13.83;;;;;;;;;;5068701;28;20184;-85
2021/06/04 07:45:52;;;;;;;24.63;22.13;;;;;;;;;;5069856;28;20596;-87
2021/06/04 07:48:20;;;;;;;40.97;34.23;;;;;;;;;;5071787;28;20188;-86
2021/06/04 07:50:48;;;;;;;38.93;34.80;;;;;;;;;;5072235;28;20623;-86
2021/06/04 07:53:16;;;;;;;42.97;35.70;;;;;;;;;;5085077;28;20199;-86
2021/06/04 07:55:42;;;;;;;42.23;33.20;;;;;;;;;;5069866;28;20239;-86
2021/06/04 07:58:08;;;;;;;38.20;32.67;;;;;;;;;;5091511;28;20180;-85
2021/06/04 08:02:27;;;;;;;35.13;31.30;;;;;;;;;;5130897;27;20272;-85
2021/06/04 08:04:53;;;;;;;41.87;32.20;;;;;;;;;;5098941;28;20672;-81
2021/06/04 08:07:19;;;;;;;37.10;30.93;;;;;;;;;;5107361;28;20571;-83
2021/06/04 08:09:45;;;;;;;33.70;30.13;;;;;;;;;;5127312;28;20181;-81
2021/06/04 08:12:15;;;;;;;36.47;31.57;;;;;;;;;;5108489;28;20194;-79
2021/06/04 08:14:41;;;;;;;36.60;30.57;;;;;;;;;;5106659;28;20178;-77
2021/06/04 08:17:07;;;;;;;39.50;32.77;;;;;;;;;;5115009;28;20186;-81
2021/06/04 08:19:35;;;;;;;34.60;29.57;;;;;;;;;;5115252;28;20177;-78
2021/06/04 08:22:02;;;;;;;36.43;30.83;;;;;;;;;;5086687;28;20207;-78
2021/06/04 08:24:31;;;;;;;40.30;31.60;;;;;;;;;;5104965;28;20175;-78
2021/06/04 08:26:58;;;;;;;39.63;31.20;;;;;;;;;;5108272;28;20274;-78
2021/06/04 08:29:27;;;;;;;37.93;31.47;;;;;;;;;;5113496;28;20237;-78
2021/06/04 08:31:53;;;;;;;38.67;31.17;;;;;;;;;;5105866;28;20232;-78
2021/06/04 08:34:19;;;;;;;38.20;30.57;;;;;;;;;;5104037;28;20230;-79
2021/06/04 08:36:45;;;;;;;35.07;31.33;;;;;;;;;;5106044;28;20239;-79
2021/06/04 08:39:17;;;;;;;40.43;33.53;;;;;;;;;;5098272;28;20187;-79
2021/06/04 08:41:52;;;;;;;33.93;27.97;;;;;;;;;;5103457;28;20199;-79
2021/06/04 08:44:18;;;;;;;37.60;29.33;;;;;;;;;;5101718;28;20745;-79
2021/06/04 08:46:46;;;;;;;37.40;31.73;;;;;;;;;;5100740;28;20174;-79
2021/06/04 08:49:17;;;;;;;32.70;28.83;;;;;;;;;;5121477;28;20264;-82
2021/06/04 08:51:51;;;;;;;38.27;30.30;;;;;;;;;;5105948;28;20197;-82
2021/06/04 08:54:29;;;;;;;33.17;29.67;;;;;;;;;;5100223;28;20184;-81
2021/06/04 08:57:10;;;;;;;34.63;29.67;;;;;;;;;;5107471;28;20181;-82
2021/06/04 08:59:38;;;;;;;36.10;29.27;;;;;;;;;;5107951;28;20185;-82
2021/06/04 09:02:12;;;;;;;41.70;31.03;;;;;;;;;;5087839;28;20310;-82
2021/06/04 09:04:42;;;;;;;43.07;31.47;;;;;;;;;;5094051;28;20178;-82
2021/06/04 09:07:22;;;;;;;37.23;31.47;;;;;;;;;;5080314;28;20208;-80
2021/06/04 09:10:04;;;;;;;37.90;32.57;;;;;;;;;;5086357;28;20229;-79
2021/06/04 09:12:49;;;;;;;39.87;33.13;;;;;;;;;;5083456;28;20183;-83
2021/06/04 09:15:18;;;;;;;37.87;33.27;;;;;;;;;;5082428;28;20540;-83
2021/06/04 09:17:58;;;;;;;34.87;30.30;;;;;;;;;;5085184;28;20519;-80
2021/06/04 09:20:34;;;;;;;38.03;32.50;;;;;;;;;;5071363;28;20298;-82
2021/06/04 09:23:03;;;;;;;74.77;37.53;;;;;;;;;;5087688;28;20172;-82
2021/06/04 09:25:30;;;;;;;39.87;32.87;;;;;;;;;;5071045;28;20212;-86
2021/06/04 09:28:25;;;;;;;50.10;32.37;;;;;;;;;;5093756;28;20180;-86
2021/06/04 09:30:54;;;;;;;33.57;29.97;;;;;;;;;;5060493;28;20225;-82
2021/06/04 09:33:23;;;;;;;33.27;29.60;;;;;;;;;;5090442;28;20557;-81
2021/06/04 09:36:07;;;;;;;34.33;27.70;;;;;;;;;;5107244;28;20638;-81
2021/06/04 09:38:40;;;;;;;30.63;27.47;;;;;;;;;;5078194;28;20183;-81
2021/06/04 09:41:24;;;;;;;28.60;25.70;;;;;;;;;;5066833;28;20204;-81
2021/06/04 09:44:11;;;;;;;24.90;22.13;;;;;;;;;;5059666;28;20519;-81
2021/06/04 09:47:00;;;;;;;23.90;21.40;;;;;;;;;;5042740;28;20197;-81
2021/06/04 09:49:35;;;;;;;20.73;17.97;;;;;;;;;;5017689;28;20188;-81
2021/06/04 09:52:20;;;;;;;21.03;18.57;;;;;;;;;;5088329;28;20191;-81
2021/06/04 09:54:46;;;;;;;23.60;21.10;;;;;;;;;;5068248;28;20191;-81
2021/06/04 09:57:22;;;;;;;24.53;22.00;;;;;;;;;;5082856;28;20430;-81
2021/06/04 09:59:48;;;;;;;18.87;17.03;;;;;;;;;;5066750;28;20173;-81
2021/06/04 10:02:33;;;;;;;19.37;16.33;;;;;;;;;;5071213;28;20222;-81
2021/06/04 10:05:17;;;;;;;19.97;17.50;;;;;;;;;;5060823;28;20233;-84
2021/06/04 10:07:45;;;;;;;18.97;16.97;;;;;;;;;;5087705;28;20711;-82
2021/06/04 10:10:25;;;;;;;21.97;19.67;;;;;;;;;;5061901;28;20189;-84
2021/06/04 10:12:57;;;;;;;20.33;18.20;;;;;;;;;;5069457;28;20182;-84
2021/06/04 10:15:24;;;;;;;20.37;18.37;;;;;;;;;;5076404;28;20671;-80
2021/06/04 10:20:30;;;;;;;25.67;23.00;;;;;;;;;;5062632;28;20247;-85
2021/06/04 10:23:14;;;;;;;25.30;22.97;;;;;;;;;;5058027;28;20184;-85
2021/06/04 10:25:40;;;;;;;26.80;24.13;;;;;;;;;;5068075;28;20195;-87
2021/06/04 10:28:06;;;;;;;26.73;24.00;;;;;;;;;;5061932;28;20242;-84
2021/06/04 10:30:35;;;;;;;23.93;21.20;;;;;;;;;;5068853;28;20187;-84
2021/06/04 10:33:20;;;;;;;27.30;24.57;;;;;;;;;;5076300;28;20212;-84
2021/06/04 10:35:56;;;;;;;28.57;22.57;;;;;;;;;;5096115;28;20625;-84
2021/06/04 10:38:25;;;;;;;27.73;21.60;;;;;;;;;;5091087;28;20549;-85
2021/06/04 10:40:53;;;;;;;25.67;22.27;;;;;;;;;;5064898;28;20244;-84
2021/06/04 10:43:22;;;;;;;23.20;20.77;;;;;;;;;;5068500;28;20702;-84
2021/06/04 10:45:48;;;;;;;22.87;20.63;;;;;;;;;;5069285;28;20283;-86
2021/06/04 10:48:18;;;;;;;22.00;19.83;;;;;;;;;;5067973;28;20176;-84
2021/06/04 10:51:07;;;;;;;24.10;21.57;;;;;;;;;;5075252;28;20180;-84
2021/06/04 10:53:44;;;;;;;26.50;24.10;;;;;;;;;;5040974;28;20207;-83
2021/06/04 10:56:11;;;;;;;26.10;23.60;;;;;;;;;;5064290;28;20198;-84
2021/06/04 10:58:56;;;;;;;26.47;20.40;;;;;;;;;;5063293;28;20180;-84
2021/06/04 11:01:30;;;;;;;21.87;18.80;;;;;;;;;;5069552;28;20266;-84
2021/06/04 11:04:00;;;;;;;24.97;16.20;;;;;;;;;;5068353;28;20263;-84
2021/06/04 11:06:26;;;;;;;17.00;14.93;;;;;;;;;;5082814;28;20183;-84
2021/06/04 11:09:11;;;;;;;18.30;14.67;;;;;;;;;;5069283;28;20564;-83
2021/06/04 11:11:43;;;;;;;15.73;14.10;;;;;;;;;;5066080;22;20246;-63
2021/06/04 11:14:17;;;;;;;18.53;13.40;;;;;;;;;;5026631;28;20404;-63
2021/06/04 11:16:54;;;;;;;17.77;13.63;;;;;;;;;;5036711;28;20186;-63
2021/06/04 11:19:23;;;;;;;20.77;16.00;;;;;;;;;;5023112;28;20186;-62
2021/06/04 11:21:51;;;;;;;22.47;18.07;;;;;;;;;;5028520;28;20206;-62
2021/06/04 11:24:33;;;;;;;18.53;15.47;;;;;;;;;;5033419;28;20261;-62
2021/06/04 11:26:59;;;;;;;21.40;17.33;;;;;;;;;;5023330;28;20439;-64
2021/06/04 11:29:28;;;;;;;25.40;20.13;;;;;;;;;;5024356;28;20644;-62
2021/06/04 11:31:54;;;;;;;20.60;18.40;;;;;;;;;;5026959;28;20440;-63
2021/06/04 11:34:25;;;;;;;20.00;16.93;;;;;;;;;;5026968;28;20270;-62
2021/06/04 11:36:51;;;;;;;20.13;18.13;;;;;;;;;;5028125;28;20182;-63
2021/06/04 11:39:22;;;;;;;20.67;18.77;;;;;;;;;;5027710;28;20709;-63
2021/06/04 11:41:53;;;;;;;22.60;19.33;;;;;;;;;;5005024;28;20195;-63
2021/06/04 11:44:25;;;;;;;20.80;18.77;;;;;;;;;;5019717;28;20201;-64
2021/06/04 11:47:10;;;;;;;17.63;15.83;;;;;;;;;;5021553;28;20178;-63
2021/06/04 11:49:54;;;;;;;19.20;17.20;;;;;;;;;;5026711;28;20600;-65
2021/06/04 11:52:22;;;;;;;19.10;17.10;;;;;;;;;;5023453;28;20530;-63
2021/06/04 11:54:48;;;;;;;18.53;16.70;;;;;;;;;;5028582;28;20182;-63
2021/06/04 11:57:28;;;;;;;22.13;19.97;;;;;;;;;;5023364;28;20243;-63
2021/06/04 11:59:59;;;;;;;20.00;18.13;;;;;;;;;;5006474;28;20921;-63
2021/06/04 12:02:31;;;;;;;19.63;17.67;;;;;;;;;;5024605;28;20251;-63
2021/06/04 12:05:15;;;;;;;20.00;18.03;;;;;;;;;;5007561;28;20266;-65
2021/06/04 12:07:43;;;;;;;17.17;15.67;;;;;;;;;;5021093;28;20194;-64
2021/06/04 12:10:10;;;;;;;19.20;17.17;;;;;;;;;;5006331;28;20638;-63
2021/06/04 12:12:38;;;;;;;20.23;18.40;;;;;;;;;;5027221;28;20212;-63
2021/06/04 12:15:07;;;;;;;20.50;18.60;;;;;;;;;;5022924;28;20423;-63
2021/06/04 12:17:34;;;;;;;19.47;17.73;;;;;;;;;;5026219;28;20190;-63
2021/06/04 12:20:15;;;;;;;20.87;18.73;;;;;;;;;;5010325;28;20181;-63
2021/06/04 12:22:43;;;;;;;20.00;18.10;;;;;;;;;;5010349;28;20208;-63
2021/06/04 12:25:10;;;;;;;20.27;18.30;;;;;;;;;;5027582;28;20607;-63
2021/06/04 12:27:56;;;;;;;19.40;17.63;;;;;;;;;;5025468;28;20626;-62
2021/06/04 12:30:41;;;;;;;18.03;16.23;;;;;;;;;;5011723;28;20630;-62
2021/06/04 12:33:07;;;;;;;21.67;19.63;;;;;;;;;;5014644;28;20177;-62
2021/06/04 12:35:39;;;;;;;20.33;18.40;;;;;;;;;;5023213;28;20196;-63
2021/06/04 12:38:18;;;;;;;21.53;19.47;;;;;;;;;;5023258;28;20179;-62
2021/06/04 12:40:50;;;;;;;21.30;19.20;;;;;;;;;;5017626;28;20278;-62
2021/06/04 12:43:20;;;;;;;19.90;18.10;;;;;;;;;;5023184;28;20192;-63
2021/06/04 12:45:55;;;;;;;19.93;17.97;;;;;;;;;;5022141;28;20291;-62
2021/06/04 12:48:24;;;;;;;20.23;18.30;;;;;;;;;;5010524;28;20173;-62
2021/06/04 12:50:56;;;;;;;18.70;17.00;;;;;;;;;;5007138;28;20178;-62
2021/06/04 12:53:28;;;;;;;20.20;18.40;;;;;;;;;;5030983;28;20184;-62
2021/06/04 12:56:00;;;;;;;19.33;17.43;;;;;;;;;;5022775;28;20197;-64
2021/06/04 12:58:28;;;;;;;19.47;17.87;;;;;;;;;;5030247;28;20203;-64
2021/06/04 13:01:13;;;;;;;18.50;16.90;;;;;;;;;;5021233;28;20266;-66
2021/06/04 13:03:41;;;;;;;15.57;14.27;;;;;;;;;;5019503;28;20191;-62
2021/06/04 13:06:12;;;;;;;16.30;14.80;;;;;;;;;;5027873;28;20180;-63
2021/06/04 13:08:45;;;;;;;14.43;13.13;;;;;;;;;;5018847;28;20172;-63
2021/06/04 13:11:11;;;;;;;15.40;14.03;;;;;;;;;;5006498;28;20183;-62
2021/06/04 13:13:40;;;;;;;14.33;13.07;;;;;;;;;;5022313;28;20234;-61
2021/06/04 13:16:23;;;;;;;14.70;13.40;;;;;;;;;;5009509;28;20188;-61
2021/06/04 13:18:51;;;;;;;15.47;12.80;;;;;;;;;;5029745;28;20565;-60
2021/06/04 13:21:17;;;;;;;15.03;13.27;;;;;;;;;;5031903;28;20204;-61
2021/06/04 13:23:56;;;;;;;17.70;13.63;;;;;;;;;;5031959;28;20175;-61
2021/06/04 13:26:26;;;;;;;13.17;11.97;;;;;;;;;;5023064;28;20164;-62
2021/06/04 13:28:54;;;;;;;12.97;11.67;;;;;;;;;;5030756;28;20177;-61
2021/06/04 13:31:29;;;;;;;13.13;11.73;;;;;;;;;;5023720;28;20268;-62
2021/06/04 13:34:02;;;;;;;13.00;11.60;;;;;;;;;;5026292;28;20183;-62
2021/06/04 13:36:29;;;;;;;14.63;12.37;;;;;;;;;;5025957;28;20195;-61
2021/06/04 13:39:07;;;;;;;13.10;11.50;;;;;;;;;;5030950;28;20694;-61
2021/06/04 13:41:36;;;;;;;12.87;10.90;;;;;;;;;;5009572;28;20223;-61
2021/06/04 13:44:04;;;;;;;11.33;10.23;;;;;;;;;;5012926;28;20627;-61
2021/06/04 13:46:35;;;;;;;12.13;11.10;;;;;;;;;;5031696;28;20172;-62
2021/06/04 13:49:04;;;;;;;11.33;10.13;;;;;;;;;;5032635;28;20184;-62
2021/06/04 13:51:33;;;;;;;11.20;10.20;;;;;;;;;;5029766;28;20184;-62
2021/06/04 13:54:00;;;;;;;13.30;11.63;;;;;;;;;;5021206;28;20195;-63
2021/06/04 13:56:33;;;;;;;11.30;10.30;;;;;;;;;;5020529;28;20267;-63
2021/06/04 13:59:19;;;;;;;10.87;9.90;;;;;;;;;;5024762;28;20185;-62
2021/06/04 14:01:51;;;;;;;11.03;9.93;;;;;;;;;;4996069;28;20218;-62
2021/06/04 14:04:22;;;;;;;11.23;10.17;;;;;;;;;;5022057;28;20189;-63
2021/06/04 14:06:51;;;;;;;11.03;9.73;;;;;;;;;;5005985;28;20625;-63
2021/06/04 14:09:37;;;;;;;11.17;10.13;;;;;;;;;;5011957;28;20182;-63
2021/06/04 14:12:23;;;;;;;10.80;9.80;;;;;;;;;;5021947;28;20569;-63
2021/06/04 14:14:52;;;;;;;9.77;8.87;;;;;;;;;;5022918;28;20200;-64
2021/06/04 14:17:27;;;;;;;11.33;10.00;;;;;;;;;;5015190;28;20557;-63
2021/06/04 14:19:55;;;;;;;10.37;9.53;;;;;;;;;;5029282;28;20187;-63
2021/06/04 14:22:36;;;;;;;11.90;10.73;;;;;;;;;;5028026;28;20620;-63
2021/06/04 14:25:04;;;;;;;10.40;9.50;;;;;;;;;;5016738;28;20216;-63
2021/06/04 14:27:35;;;;;;;10.90;9.90;;;;;;;;;;5027905;28;20180;-63
2021/06/04 14:30:05;;;;;;;11.37;9.53;;;;;;;;;;5019010;28;20537;-65
2021/06/04 14:32:32;;;;;;;11.43;9.67;;;;;;;;;;5024770;28;20268;-63
2021/06/04 14:35:01;;;;;;;10.67;9.67;;;;;;;;;;5017901;28;20176;-63
2021/06/04 14:37:33;;;;;;;11.10;9.87;;;;;;;;;;5028996;28;20579;-63
2021/06/04 14:40:10;;;;;;;10.83;9.83;;;;;;;;;;5027808;28;20184;-63
2021/06/04 14:42:36;;;;;;;11.57;10.37;;;;;;;;;;4993635;28;20188;-63
2021/06/04 14:45:03;;;;;;;11.80;10.53;;;;;;;;;;5027142;28;20211;-65
2021/06/04 14:47:37;;;;;;;11.37;10.23;;;;;;;;;;5021884;28;20191;-63
2021/06/04 14:50:05;;;;;;;10.43;9.10;;;;;;;;;;5026220;28;20946;-63
2021/06/04 14:52:31;;;;;;;12.13;11.13;;;;;;;;;;5014450;28;20717;-63